createdAt,value
2018-06-29T00:02:08.133Z,95.40
2018-06-29T00:04:36.485Z,95.20
2018-06-29T00:07:05.062Z,95.40
2018-06-29T00:09:33.410Z,95.40
2018-06-29T00:12:01.775Z,95.50
2018-06-29T00:14:30.285Z,95.50
2018-06-29T00:16:58.770Z,95.40
2018-06-29T00:19:27.086Z,95.20
2018-06-29T00:21:56.186Z,95.10
2018-06-29T00:24:24.738Z,95.30
2018-06-29T00:26:53.144Z,95.30
2018-06-29T00:29:21.735Z,95.40
2018-06-29T00:31:50.240Z,95.50
2018-06-29T00:34:18.608Z,95.60
2018-06-29T00:36:46.978Z,95.70
2018-06-29T00:39:15.338Z,95.60
2018-06-29T00:44:11.818Z,95.70
2018-06-29T00:46:40.133Z,95.80
2018-06-29T00:49:08.586Z,95.80
2018-06-29T00:51:36.834Z,95.90
2018-06-29T00:54:05.231Z,95.90
2018-06-29T00:56:33.576Z,96.00
2018-06-29T00:59:01.958Z,96.20
2018-06-29T01:01:30.314Z,96.20
2018-06-29T01:03:58.667Z,96.30
2018-06-29T01:06:27.043Z,96.50
2018-06-29T01:08:55.392Z,96.70
2018-06-29T01:11:23.748Z,96.60
2018-06-29T01:13:52.438Z,96.50
2018-06-29T01:16:20.902Z,96.40
2018-06-29T01:18:50.330Z,96.40
2018-06-29T01:21:18.800Z,96.20
2018-06-29T01:23:47.198Z,96.50
2018-06-29T01:26:15.601Z,96.70
2018-06-29T01:28:44.047Z,96.70
2018-06-29T01:31:12.437Z,96.70
2018-06-29T01:33:40.785Z,96.60
2018-06-29T01:36:09.330Z,96.60
2018-06-29T01:38:37.689Z,96.80
2018-06-29T01:41:06.222Z,97.10
2018-06-29T01:43:34.633Z,97.10
2018-06-29T01:48:31.070Z,97.00
2018-06-29T01:50:59.493Z,96.80
2018-06-29T01:53:27.901Z,96.60
2018-06-29T01:55:56.282Z,96.70
2018-06-29T01:58:24.658Z,96.00
2018-06-29T02:00:53.038Z,95.90
2018-06-29T02:03:21.409Z,96.20
2018-06-29T02:05:49.806Z,96.00
2018-06-29T02:08:18.170Z,95.80
2018-06-29T02:10:46.699Z,95.80
2018-06-29T02:13:15.079Z,95.80
2018-06-29T02:15:43.475Z,95.80
2018-06-29T02:18:11.914Z,95.70
2018-06-29T02:20:40.249Z,95.60
2018-06-29T02:23:08.616Z,95.60
2018-06-29T02:25:36.996Z,95.20
2018-06-29T02:28:05.910Z,95.10
2018-06-29T02:30:34.302Z,95.00
2018-06-29T02:33:02.655Z,94.90
2018-06-29T02:35:31.190Z,94.60
2018-06-29T02:37:59.616Z,94.50
2018-06-29T02:40:27.970Z,94.80
2018-06-29T02:42:56.356Z,94.90
2018-06-29T02:45:24.790Z,94.70
2018-06-29T02:47:53.188Z,94.60
2018-06-29T02:50:21.613Z,94.70
2018-06-29T02:52:49.990Z,94.50
2018-06-29T02:55:18.367Z,94.30
2018-06-29T02:57:46.803Z,94.20
2018-06-29T03:00:15.244Z,94.30
2018-06-29T03:02:43.682Z,94.40
2018-06-29T03:05:12.102Z,94.50
2018-06-29T03:07:40.668Z,94.50
2018-06-29T03:10:09.144Z,94.40
2018-06-29T03:12:37.474Z,94.40
2018-06-29T03:15:05.953Z,94.30
2018-06-29T03:17:34.351Z,94.30
2018-06-29T03:20:02.829Z,94.40
2018-06-29T03:22:31.246Z,94.20
2018-06-29T03:24:59.649Z,93.90
2018-06-29T03:27:28.052Z,93.60
2018-06-29T03:29:56.748Z,93.50
2018-06-29T03:32:25.157Z,93.40
2018-06-29T03:34:53.573Z,93.50
2018-06-29T03:37:22.019Z,93.40
2018-06-29T03:39:50.422Z,93.50
2018-06-29T03:42:19.031Z,93.50
2018-06-29T03:44:47.457Z,93.60
2018-06-29T03:47:15.870Z,93.50
2018-06-29T03:49:44.459Z,93.40
2018-06-29T03:52:12.797Z,93.40
2018-06-29T03:54:41.139Z,93.40
2018-06-29T03:57:09.561Z,93.50
2018-06-29T03:59:37.970Z,93.40
2018-06-29T04:02:06.361Z,93.30
2018-06-29T04:04:34.722Z,93.20
2018-06-29T04:07:03.165Z,93.20
2018-06-29T04:09:31.521Z,93.30
2018-06-29T04:11:59.859Z,93.30
2018-06-29T04:14:28.247Z,93.60
2018-06-29T04:16:56.597Z,93.50
2018-06-29T04:19:25.145Z,93.50
2018-06-29T04:21:53.590Z,93.40
2018-06-29T04:24:21.960Z,93.40
2018-06-29T04:26:50.346Z,93.40
2018-06-29T04:29:18.718Z,93.60
2018-06-29T04:31:47.096Z,93.60
2018-06-29T04:34:15.443Z,93.50
2018-06-29T04:36:43.828Z,93.40
2018-06-29T04:39:12.506Z,93.60
2018-06-29T04:41:40.870Z,93.70
2018-06-29T04:44:09.246Z,93.70
2018-06-29T04:46:37.670Z,93.60
2018-06-29T04:49:06.217Z,93.60
2018-06-29T04:51:34.579Z,93.60
2018-06-29T04:54:02.925Z,93.50
2018-06-29T04:56:31.318Z,93.50
2018-06-29T04:58:59.671Z,93.50
2018-06-29T05:01:28.070Z,93.40
2018-06-29T05:03:56.446Z,93.40
2018-06-29T05:06:24.822Z,93.50
2018-06-29T05:08:53.211Z,93.40
2018-06-29T05:11:21.581Z,93.60
2018-06-29T05:13:49.918Z,93.50
2018-06-29T05:16:18.305Z,93.50
2018-06-29T05:18:46.660Z,93.60
2018-06-29T05:21:15.028Z,93.50
2018-06-29T05:23:43.600Z,93.50
2018-06-29T05:26:11.944Z,93.30
2018-06-29T05:28:40.349Z,93.30
2018-06-29T05:31:08.863Z,93.40
2018-06-29T05:33:37.252Z,93.40
2018-06-29T05:36:05.637Z,93.40
2018-06-29T05:38:34.044Z,93.50
2018-06-29T05:41:02.450Z,93.20
2018-06-29T05:43:30.851Z,93.30
2018-06-29T05:45:59.225Z,93.10
2018-06-29T05:53:23.885Z,93.20
2018-06-29T05:55:52.268Z,93.10
2018-06-29T05:58:23.388Z,93.10
2018-06-29T06:00:51.786Z,93.20
2018-06-29T06:03:20.247Z,93.30
2018-06-29T06:05:48.657Z,93.20
2018-06-29T06:08:17.097Z,93.10
2018-06-29T06:10:45.443Z,93.20
2018-06-29T06:13:13.809Z,93.00
2018-06-29T06:15:42.160Z,92.90
2018-06-29T06:18:10.698Z,92.90
2018-06-29T06:20:39.059Z,92.90
2018-06-29T06:23:15.153Z,93.00
2018-06-29T06:25:43.525Z,93.00
2018-06-29T06:28:11.857Z,93.00
2018-06-29T06:30:40.424Z,93.00
2018-06-29T06:33:08.884Z,93.20
2018-06-29T06:35:37.256Z,93.00
2018-06-29T06:38:05.860Z,92.90
2018-06-29T06:40:34.234Z,92.90
2018-06-29T06:43:02.614Z,93.00
2018-06-29T06:45:31.160Z,92.70
2018-06-29T06:47:59.586Z,92.80
2018-06-29T06:50:27.998Z,92.50
2018-06-29T06:52:56.409Z,92.40
2018-06-29T06:55:24.776Z,92.50
2018-06-29T06:57:53.424Z,92.40
2018-06-29T07:00:21.778Z,92.50
2018-06-29T07:02:50.148Z,92.70
2018-06-29T07:05:18.562Z,92.40
2018-06-29T07:07:46.938Z,92.50
2018-06-29T07:10:15.318Z,92.30
2018-06-29T07:12:43.727Z,92.30
2018-06-29T07:15:12.121Z,92.60
2018-06-29T07:17:40.518Z,92.80
2018-06-29T07:20:09.467Z,92.60
2018-06-29T07:22:37.869Z,92.40
2018-06-29T07:25:06.343Z,92.30
2018-06-29T07:27:35.303Z,91.70
2018-06-29T07:30:04.709Z,91.60
2018-06-29T07:32:33.032Z,91.90
2018-06-29T07:35:01.391Z,91.60
2018-06-29T07:37:29.813Z,91.80
2018-06-29T07:39:58.201Z,91.80
2018-06-29T07:42:26.641Z,91.70
2018-06-29T07:44:55.009Z,91.70
2018-06-29T07:47:23.454Z,91.60
2018-06-29T07:49:51.860Z,91.70
2018-06-29T07:52:20.220Z,91.70
2018-06-29T07:54:48.608Z,91.70
2018-06-29T07:57:17.010Z,91.70
2018-06-29T07:59:45.348Z,91.40
2018-06-29T08:02:13.764Z,91.20
2018-06-29T08:04:42.209Z,91.10
2018-06-29T08:07:10.739Z,90.90
2018-06-29T08:09:39.130Z,90.80
2018-06-29T08:12:07.502Z,90.60
2018-06-29T08:14:35.924Z,90.10
2018-06-29T08:17:04.508Z,89.70
2018-06-29T08:19:32.906Z,88.10
2018-06-29T08:22:01.254Z,88.30
2018-06-29T08:24:31.262Z,88.30
2018-06-29T08:26:59.663Z,88.60
2018-06-29T08:29:28.019Z,88.30
2018-06-29T08:31:56.375Z,87.50
2018-06-29T08:34:24.765Z,87.30
2018-06-29T08:36:53.366Z,87.80
2018-06-29T08:39:21.798Z,88.20
2018-06-29T08:41:50.178Z,87.50
2018-06-29T08:44:18.567Z,86.70
2018-06-29T08:46:46.959Z,85.00
2018-06-29T08:49:15.317Z,83.50
2018-06-29T08:51:43.888Z,81.70
2018-06-29T08:54:12.278Z,81.00
2018-06-29T08:56:40.634Z,80.70
2018-06-29T08:59:09.203Z,78.90
2018-06-29T09:01:37.570Z,78.20
2018-06-29T09:04:06.086Z,78.00
2018-06-29T09:06:34.475Z,77.30
2018-06-29T09:09:02.922Z,77.20
2018-06-29T09:11:31.273Z,77.00
2018-06-29T09:13:59.842Z,76.20
2018-06-29T09:16:28.193Z,75.80
2018-06-29T09:18:56.621Z,75.20
2018-06-29T09:21:24.962Z,74.90
2018-06-29T09:23:53.298Z,75.10
2018-06-29T09:26:21.702Z,74.60
2018-06-29T09:28:50.042Z,74.70
2018-06-29T09:31:18.496Z,75.10
2018-06-29T09:33:47.044Z,75.20
2018-06-29T09:36:15.601Z,74.60
2018-06-29T09:38:43.962Z,74.80
2018-06-29T09:41:12.435Z,74.20
2018-06-29T09:43:40.784Z,73.90
2018-06-29T09:46:09.205Z,73.80
2018-06-29T09:48:37.614Z,74.70
2018-06-29T09:51:06.664Z,73.80
2018-06-29T09:53:35.079Z,73.80
2018-06-29T09:56:03.558Z,74.40
2018-06-29T09:58:32.367Z,75.10
2018-06-29T10:01:00.910Z,75.10
2018-06-29T10:03:29.299Z,75.10
2018-06-29T10:05:57.954Z,76.80
2018-06-29T10:08:26.438Z,78.40
2018-06-29T10:10:54.898Z,76.70
2018-06-29T10:13:23.394Z,78.10
2018-06-29T10:15:51.877Z,78.50
2018-06-29T10:18:20.668Z,79.20
2018-06-29T10:20:49.278Z,79.80
2018-06-29T10:23:17.790Z,78.60
2018-06-29T10:25:46.297Z,80.40
2018-06-29T10:28:15.368Z,79.30
2018-06-29T10:30:43.851Z,80.10
2018-06-29T10:33:12.242Z,79.70
2018-06-29T10:35:40.766Z,79.00
2018-06-29T10:38:09.281Z,78.60
2018-06-29T10:40:37.968Z,79.50
2018-06-29T10:43:06.639Z,79.60
2018-06-29T10:45:35.306Z,80.30
2018-06-29T10:48:03.910Z,79.40
2018-06-29T10:50:32.301Z,80.20
2018-06-29T10:53:00.677Z,79.70
2018-06-29T10:55:29.027Z,80.00
2018-06-29T10:57:57.717Z,79.20
2018-06-29T11:00:26.123Z,79.70
2018-06-29T11:02:54.484Z,80.00
2018-06-29T11:05:22.940Z,80.50
2018-06-29T11:07:51.286Z,80.20
2018-06-29T11:10:19.680Z,78.90
2018-06-29T11:12:48.233Z,78.20
2018-06-29T11:15:16.614Z,79.20
2018-06-29T11:17:44.974Z,79.80
2018-06-29T11:20:13.683Z,79.60
2018-06-29T11:22:42.191Z,78.90
2018-06-29T11:25:10.491Z,79.50
2018-06-29T11:27:38.941Z,79.30
2018-06-29T11:32:35.464Z,79.10
2018-06-29T11:35:04.073Z,79.60
2018-06-29T11:37:32.492Z,78.60
2018-06-29T11:40:01.406Z,79.60
2018-06-29T11:42:29.912Z,79.40
2018-06-29T11:44:58.258Z,78.80
2018-06-29T11:47:26.802Z,78.90
2018-06-29T11:49:55.208Z,79.50
2018-06-29T11:52:23.546Z,79.30
2018-06-29T11:54:51.963Z,79.20
2018-06-29T11:57:20.326Z,79.90
2018-06-29T11:59:49.209Z,80.00
2018-06-29T12:02:17.559Z,80.10
2018-06-29T12:04:45.950Z,79.80
2018-06-29T12:07:14.459Z,81.80
2018-06-29T12:09:42.819Z,80.90
2018-06-29T12:12:11.177Z,80.60
2018-06-29T12:14:39.709Z,80.00
2018-06-29T12:17:08.054Z,80.10
2018-06-29T12:19:36.418Z,81.20
2018-06-29T12:22:04.824Z,80.40
2018-06-29T12:24:33.173Z,80.20
2018-06-29T12:29:29.635Z,80.70
2018-06-29T12:31:57.983Z,79.80
2018-06-29T12:34:26.510Z,80.20
2018-06-29T12:36:54.993Z,81.10
2018-06-29T12:39:23.337Z,81.90
2018-06-29T12:41:51.920Z,81.20
2018-06-29T12:44:20.257Z,80.30
2018-06-29T12:46:48.634Z,79.60
2018-06-29T12:49:17.049Z,80.00
2018-06-29T12:51:45.442Z,80.50
2018-06-29T12:54:13.827Z,80.60
2018-06-29T12:56:42.184Z,80.20
2018-06-29T12:59:10.573Z,79.20
2018-06-29T13:01:38.926Z,79.50
2018-06-29T13:04:07.346Z,80.40
2018-06-29T13:06:35.714Z,79.50
2018-06-29T13:09:06.482Z,80.90
2018-06-29T13:11:34.858Z,80.00
2018-06-29T13:14:03.869Z,79.60
2018-06-29T13:16:32.256Z,79.40
2018-06-29T13:19:00.613Z,79.20
2018-06-29T13:21:28.986Z,79.10
2018-06-29T13:23:57.320Z,79.30
2018-06-29T13:26:25.719Z,79.40
2018-06-29T13:28:54.374Z,79.20
2018-06-29T13:31:22.714Z,80.10
2018-06-29T13:33:51.116Z,81.30
2018-06-29T13:36:19.449Z,79.70
2018-06-29T13:38:47.787Z,80.90
2018-06-29T13:41:16.179Z,79.20
2018-06-29T13:43:44.611Z,79.60
2018-06-29T13:46:12.951Z,79.60
2018-06-29T13:48:41.511Z,79.60
2018-06-29T13:51:09.953Z,79.60
2018-06-29T13:53:38.353Z,79.70
2018-06-29T13:56:06.797Z,80.10
2018-06-29T13:58:35.265Z,80.60
2018-06-29T14:01:03.704Z,80.30
2018-06-29T14:03:32.349Z,80.50
2018-06-29T14:06:00.761Z,80.70
2018-06-29T14:08:29.138Z,81.40
2018-06-29T14:10:57.652Z,83.00
2018-06-29T14:13:26.000Z,80.90
2018-06-29T14:15:54.398Z,81.00
2018-06-29T14:18:22.830Z,82.10
2018-06-29T14:20:51.365Z,82.60
2018-06-29T14:23:19.981Z,80.10
2018-06-29T14:25:48.407Z,79.50
2018-06-29T14:28:16.821Z,79.50
2018-06-29T14:30:45.360Z,81.30
2018-06-29T14:33:13.761Z,81.60
2018-06-29T14:35:42.175Z,81.70
2018-06-29T14:38:10.658Z,80.10
2018-06-29T14:40:39.037Z,80.10
2018-06-29T14:43:07.639Z,79.80
2018-06-29T14:45:36.020Z,78.80
2018-06-29T14:48:04.541Z,78.50
2018-06-29T14:50:32.950Z,78.90
2018-06-29T14:53:01.310Z,79.00
2018-06-29T14:55:29.818Z,79.10
2018-06-29T14:57:58.244Z,78.40
2018-06-29T15:00:26.612Z,78.30
2018-06-29T15:05:23.111Z,78.20
2018-06-29T15:07:51.494Z,78.50
2018-06-29T15:10:19.936Z,78.90
2018-06-29T15:12:48.333Z,79.80
2018-06-29T15:15:16.937Z,78.80
2018-06-29T15:17:45.350Z,80.00
2018-06-29T15:20:13.770Z,79.80
2018-06-29T15:22:42.212Z,78.80
2018-06-29T15:25:10.881Z,78.70
2018-06-29T15:27:39.347Z,80.40
2018-06-29T15:30:07.834Z,79.70
2018-06-29T15:32:36.246Z,80.10
2018-06-29T15:35:05.165Z,80.30
2018-06-29T15:37:33.563Z,80.40
2018-06-29T15:40:01.952Z,81.30
2018-06-29T15:42:30.380Z,80.40
2018-06-29T15:44:58.825Z,80.40
2018-06-29T15:47:27.458Z,79.30
2018-06-29T15:49:55.963Z,80.00
2018-06-29T15:52:24.356Z,79.50
2018-06-29T15:54:52.749Z,78.50
2018-06-29T15:57:21.157Z,79.30
2018-06-29T15:59:49.541Z,78.10
2018-06-29T16:02:17.926Z,79.40
2018-06-29T16:04:46.378Z,80.10
2018-06-29T16:07:14.841Z,78.80
2018-06-29T16:09:43.421Z,79.50
2018-06-29T16:12:11.827Z,79.70
2018-06-29T16:14:40.200Z,79.50
2018-06-29T16:17:08.791Z,79.30
2018-06-29T16:19:37.201Z,79.50
2018-06-29T16:22:05.649Z,78.60
2018-06-29T16:24:34.069Z,78.30
2018-06-29T16:27:02.498Z,79.50
2018-06-29T16:29:31.965Z,79.10
2018-06-29T16:32:00.428Z,78.60
2018-06-29T16:34:28.840Z,76.90
2018-06-29T16:36:57.293Z,78.20
2018-06-29T16:39:25.690Z,78.60
2018-06-29T16:41:54.079Z,77.00
2018-06-29T16:44:22.494Z,78.40
2018-06-29T16:46:50.889Z,79.30
2018-06-29T16:49:19.320Z,77.40
2018-06-29T16:51:47.731Z,78.60
2018-06-29T16:54:16.141Z,77.70
2018-06-29T16:56:44.643Z,78.20
2018-06-29T16:59:13.066Z,80.40
2018-06-29T17:01:41.522Z,80.50
2018-06-29T17:04:09.940Z,78.90
2018-06-29T17:06:38.335Z,79.00
2018-06-29T17:09:07.877Z,77.90
2018-06-29T17:11:36.425Z,80.10
2018-06-29T17:14:05.061Z,79.60
2018-06-29T17:16:33.905Z,78.60
2018-06-29T17:19:02.543Z,79.90
2018-06-29T17:21:31.255Z,78.40
2018-06-29T17:23:59.870Z,79.70
2018-06-29T17:26:28.473Z,79.50
2018-06-29T17:28:57.656Z,79.50
2018-06-29T17:31:25.951Z,79.30
2018-06-29T17:33:54.477Z,80.10
2018-06-29T17:36:23.070Z,80.60
2018-06-29T17:38:51.458Z,76.50
2018-06-29T17:41:20.090Z,76.90
2018-06-29T17:43:48.709Z,80.00
2018-06-29T17:46:17.160Z,81.70
2018-06-29T17:48:45.819Z,79.30
2018-06-29T17:51:14.454Z,80.20
2018-06-29T17:53:42.852Z,79.30
2018-06-29T17:56:11.302Z,81.40
2018-06-29T17:58:39.718Z,80.90
2018-06-29T18:01:08.286Z,80.20
2018-06-29T18:03:36.677Z,80.50
2018-06-29T18:08:34.106Z,79.90
2018-06-29T18:11:03.024Z,78.10
2018-06-29T18:13:32.155Z,80.90
2018-06-29T18:16:01.692Z,77.30
2018-06-29T18:18:30.520Z,79.70
2018-06-29T18:20:59.020Z,79.50
2018-06-29T18:23:27.678Z,79.70
2018-06-29T18:25:56.055Z,79.60
2018-06-29T18:28:24.567Z,79.90
2018-06-29T18:30:53.306Z,80.20
2018-06-29T18:33:21.734Z,79.20
2018-06-29T18:35:51.123Z,79.70
2018-06-29T18:38:19.601Z,79.50
2018-06-29T18:40:47.993Z,79.70
2018-06-29T18:43:16.615Z,79.30
2018-06-29T18:45:45.050Z,79.80
2018-06-29T18:48:13.457Z,80.20
2018-06-29T18:50:41.925Z,80.20
2018-06-29T18:53:10.301Z,80.70
2018-06-29T18:55:38.854Z,79.80
2018-06-29T18:58:07.218Z,80.20
2018-06-29T19:00:35.598Z,80.40
2018-06-29T19:03:04.074Z,80.30
2018-06-29T19:05:32.467Z,80.80
2018-06-29T19:08:00.828Z,78.80
2018-06-29T19:10:29.238Z,80.20
2018-06-29T19:12:57.658Z,80.60
2018-06-29T19:15:26.122Z,79.30
2018-06-29T19:17:54.569Z,80.80
2018-06-29T19:20:22.952Z,80.80
2018-06-29T19:22:51.382Z,81.70
2018-06-29T19:25:19.807Z,81.50
2018-06-29T19:27:48.399Z,82.00
2018-06-29T19:30:16.794Z,82.30
2018-06-29T19:32:45.307Z,82.10
2018-06-29T19:35:13.713Z,82.40
2018-06-29T19:37:42.115Z,82.70
2018-06-29T19:40:10.618Z,82.60
2018-06-29T19:42:39.186Z,82.90
2018-06-29T19:45:07.584Z,83.00
2018-06-29T19:47:35.975Z,83.20
2018-06-29T19:50:05.900Z,83.30
2018-06-29T19:55:02.496Z,83.50
2018-06-29T19:57:31.160Z,83.20
2018-06-29T20:00:00.619Z,83.50
2018-06-29T20:02:29.030Z,83.80
2018-06-29T20:04:58.548Z,83.60
2018-06-29T20:07:27.341Z,83.70
2018-06-29T20:09:55.747Z,84.10
2018-06-29T20:12:24.143Z,82.50
2018-06-29T20:14:52.552Z,83.50
2018-06-29T20:17:21.848Z,83.70
2018-06-29T20:19:50.458Z,84.20
2018-06-29T20:22:18.847Z,83.70
2018-06-29T20:24:47.638Z,81.60
2018-06-29T20:27:16.027Z,81.20
2018-06-29T20:29:44.418Z,82.80
2018-06-29T20:32:12.846Z,80.60
2018-06-29T20:34:41.461Z,79.70
2018-06-29T20:37:09.841Z,81.00
2018-06-29T20:39:38.461Z,80.60
2018-06-29T20:42:06.850Z,79.30
2018-06-29T20:44:35.274Z,79.10
2018-06-29T20:47:03.669Z,79.00
2018-06-29T20:49:32.030Z,79.20
2018-06-29T20:52:00.605Z,79.30
2018-06-29T20:54:28.959Z,79.20
2018-06-29T20:56:57.359Z,79.30
2018-06-29T20:59:25.756Z,79.20
2018-06-29T21:01:54.107Z,78.60
2018-06-29T21:04:22.640Z,79.50
2018-06-29T21:06:50.993Z,79.20
2018-06-29T21:09:19.354Z,79.20
2018-06-29T21:11:47.763Z,79.20
2018-06-29T21:14:16.301Z,79.50
2018-06-29T21:16:44.874Z,79.70
2018-06-29T21:19:13.357Z,80.00
2018-06-29T21:21:41.728Z,79.60
2018-06-29T21:24:10.144Z,80.10
2018-06-29T21:26:38.518Z,80.30
2018-06-29T21:29:07.006Z,80.60
2018-06-29T21:31:35.368Z,80.70
2018-06-29T21:34:03.834Z,80.60
2018-06-29T21:36:32.179Z,81.10
2018-06-29T21:39:00.666Z,81.20
2018-06-29T21:41:29.003Z,81.30
2018-06-29T21:43:57.443Z,81.30
2018-06-29T21:46:25.770Z,81.40
2018-06-29T21:48:54.123Z,81.50
2018-06-29T21:51:22.565Z,81.30
2018-06-29T21:53:50.886Z,81.20
2018-06-29T21:56:19.403Z,81.40
2018-06-29T21:58:47.746Z,81.20
2018-06-29T22:01:16.119Z,81.20
2018-06-29T22:03:44.558Z,81.60
2018-06-29T22:06:13.013Z,81.60
2018-06-29T22:08:41.443Z,81.80
2018-06-29T22:11:09.847Z,81.20
2018-06-29T22:13:38.299Z,81.20
2018-06-29T22:16:06.757Z,81.00
2018-06-29T22:18:35.161Z,80.80
2018-06-29T22:21:03.598Z,81.10
2018-06-29T22:23:31.969Z,81.20
2018-06-29T22:26:00.547Z,81.20
2018-06-29T22:28:28.959Z,81.20
2018-06-29T22:30:57.341Z,81.20
2018-06-29T22:33:25.758Z,81.30
2018-06-29T22:35:54.129Z,81.30
2018-06-29T22:38:22.501Z,81.80
2018-06-29T22:40:51.075Z,82.10
2018-06-29T22:43:19.443Z,82.00
2018-06-29T22:45:47.807Z,82.10
2018-06-29T22:48:16.390Z,82.10
2018-06-29T22:50:44.791Z,82.40
2018-06-29T22:53:13.258Z,82.50
2018-06-29T22:55:41.689Z,82.40
2018-06-29T22:58:10.069Z,82.50
2018-06-29T23:00:38.462Z,82.90
2018-06-29T23:03:09.935Z,82.80
2018-06-29T23:05:38.355Z,82.70
2018-06-29T23:08:08.206Z,82.90
2018-06-29T23:10:36.611Z,83.20
2018-06-29T23:13:05.177Z,83.60
2018-06-29T23:15:33.626Z,83.80
2018-06-29T23:18:02.025Z,84.00
2018-06-29T23:20:31.348Z,84.20
2018-06-29T23:22:59.773Z,84.10
2018-06-29T23:25:28.160Z,84.40
2018-06-29T23:27:56.537Z,84.30
2018-06-29T23:30:24.960Z,84.60
2018-06-29T23:32:53.367Z,84.50
2018-06-29T23:35:21.761Z,84.70
2018-06-29T23:37:50.135Z,84.50
2018-06-29T23:40:18.504Z,84.50
2018-06-29T23:42:46.903Z,84.60
2018-06-29T23:45:15.299Z,84.80
2018-06-29T23:47:43.717Z,85.20
2018-06-29T23:50:12.127Z,85.30
2018-06-29T23:52:40.564Z,85.20
2018-06-29T23:55:09.174Z,85.60
2018-06-29T23:57:37.586Z,84.90
